Time;durP1;ratioP1;P1;durP2;ratioP2;P2;SDS_P1;SDS_P2;PMS_P1;PMS_P2;Temp;Humidity;BMP_temperature;BMP_pressure;BME280_temperature;BME280_humidity;BME280_pressure;Samples;Min_cycle;Max_cycle;Signal;HPM_P1;HPM_P2
2022/08/27 00:00:37;;;;;;;1.42;0.88;;;;;;;;;;5067303;28;20044;-72
2022/08/27 00:03:03;;;;;;;2.08;1.00;;;;;;;;;;5068105;28;20393;-72
2022/08/27 00:05:29;;;;;;;1.10;1.00;;;;;;;;;;5068540;28;20044;-70
2022/08/27 00:07:55;;;;;;;2.05;0.88;;;;;;;;;;5070070;28;20040;-66
2022/08/27 00:10:23;;;;;;;1.10;0.80;;;;;;;;;;5062865;28;20044;-71
2022/08/27 00:12:49;;;;;;;1.30;1.20;;;;;;;;;;5072893;28;20044;-72
2022/08/27 00:15:16;;;;;;;0.70;0.70;;;;;;;;;;5072364;28;20677;-70
2022/08/27 00:17:44;;;;;;;0.80;0.80;;;;;;;;;;5054530;28;20049;-72
2022/08/27 00:20:11;;;;;;;1.05;0.77;;;;;;;;;;5059722;28;20076;-72
2022/08/27 00:22:37;;;;;;;1.02;0.95;;;;;;;;;;5052053;28;20106;-72
2022/08/27 00:25:03;;;;;;;1.45;1.02;;;;;;;;;;5071189;28;20046;-72
2022/08/27 00:27:29;;;;;;;1.80;0.95;;;;;;;;;;5058568;28;20532;-71
2022/08/27 00:29:55;;;;;;;1.50;0.90;;;;;;;;;;5073105;28;20033;-72
2022/08/27 00:32:21;;;;;;;1.70;1.00;;;;;;;;;;5058523;28;20045;-72
2022/08/27 00:34:47;;;;;;;1.23;1.00;;;;;;;;;;5065714;28;20042;-72
2022/08/27 00:37:14;;;;;;;2.03;0.90;;;;;;;;;;5062016;28;20041;-70
2022/08/27 00:39:40;;;;;;;1.58;0.90;;;;;;;;;;5072355;28;20557;-70
2022/08/27 00:42:06;;;;;;;2.10;1.38;;;;;;;;;;5072002;28;20131;-71
2022/08/27 00:44:32;;;;;;;1.52;1.15;;;;;;;;;;5072856;28;20120;-70
2022/08/27 00:47:00;;;;;;;1.10;0.85;;;;;;;;;;5071534;28;20044;-70
2022/08/27 00:49:37;;;;;;;1.38;1.00;;;;;;;;;;5072354;28;20064;-71
2022/08/27 00:52:06;;;;;;;1.10;1.00;;;;;;;;;;5071421;28;20051;-71
2022/08/27 00:54:32;;;;;;;1.20;0.85;;;;;;;;;;5072221;28;20046;-70
2022/08/27 00:56:59;;;;;;;0.90;0.85;;;;;;;;;;5072333;28;20089;-70
2022/08/27 00:59:28;;;;;;;1.17;0.75;;;;;;;;;;5072250;28;20040;-70
2022/08/27 01:04:40;;;;;;;1.15;0.90;;;;;;;;;;5072667;28;20086;-71
2022/08/27 01:07:06;;;;;;;1.40;1.00;;;;;;;;;;5071013;28;20037;-70
2022/08/27 01:09:32;;;;;;;2.15;1.10;;;;;;;;;;5072423;28;20055;-71
2022/08/27 01:11:58;;;;;;;0.70;0.70;;;;;;;;;;5072156;28;20264;-71
2022/08/27 01:14:26;;;;;;;1.27;0.90;;;;;;;;;;5071763;28;20466;-71
2022/08/27 01:16:54;;;;;;;2.05;1.10;;;;;;;;;;5070883;28;20048;-70
2022/08/27 01:19:40;;;;;;;1.10;0.95;;;;;;;;;;5071800;28;20040;-70
2022/08/27 01:22:06;;;;;;;1.38;0.90;;;;;;;;;;5069809;28;20049;-71
2022/08/27 01:24:38;;;;;;;1.23;0.80;;;;;;;;;;5072124;28;20043;-70
2022/08/27 01:27:07;;;;;;;1.30;0.90;;;;;;;;;;5070853;28;20041;-69
2022/08/27 01:29:33;;;;;;;0.88;0.88;;;;;;;;;;5072102;28;20048;-71
2022/08/27 01:32:05;;;;;;;0.88;0.88;;;;;;;;;;5070725;28;20044;-70
2022/08/27 01:34:31;;;;;;;0.93;0.85;;;;;;;;;;5070824;28;20042;-70
2022/08/27 01:36:57;;;;;;;0.88;0.82;;;;;;;;;;5070515;28;20032;-70
2022/08/27 01:39:23;;;;;;;1.13;0.80;;;;;;;;;;5070910;28;20515;-70
2022/08/27 01:41:50;;;;;;;0.77;0.77;;;;;;;;;;5071528;28;20059;-71
2022/08/27 01:44:16;;;;;;;1.00;0.80;;;;;;;;;;5071311;28;20128;-71
2022/08/27 01:46:42;;;;;;;1.15;1.05;;;;;;;;;;5070346;28;20087;-70
2022/08/27 01:49:09;;;;;;;1.08;0.77;;;;;;;;;;5069273;28;20048;-71
2022/08/27 01:51:36;;;;;;;1.55;0.90;;;;;;;;;;5068996;28;20051;-69
2022/08/27 01:54:02;;;;;;;0.70;0.70;;;;;;;;;;5070232;28;20453;-70
2022/08/27 01:56:28;;;;;;;1.02;0.90;;;;;;;;;;5069859;28;20040;-70
2022/08/27 01:58:54;;;;;;;0.98;0.90;;;;;;;;;;5070253;28;20555;-70
2022/08/27 02:01:20;;;;;;;1.95;0.63;;;;;;;;;;5068379;28;20566;-70
2022/08/27 02:03:47;;;;;;;1.60;0.70;;;;;;;;;;5071351;28;20040;-70
2022/08/27 02:06:13;;;;;;;0.93;0.90;;;;;;;;;;5070431;28;20502;-68
2022/08/27 02:08:40;;;;;;;2.38;1.00;;;;;;;;;;5070908;28;20522;-69
2022/08/27 02:11:07;;;;;;;1.05;0.90;;;;;;;;;;5071026;28;20079;-69
2022/08/27 02:13:33;;;;;;;1.58;0.80;;;;;;;;;;5071196;28;20462;-70
2022/08/27 02:16:00;;;;;;;1.40;0.95;;;;;;;;;;5069230;28;20509;-70
2022/08/27 02:18:26;;;;;;;2.25;0.80;;;;;;;;;;5070509;28;20127;-71
2022/08/27 02:20:52;;;;;;;0.93;0.80;;;;;;;;;;5071138;28;20044;-70
2022/08/27 02:23:18;;;;;;;0.90;0.80;;;;;;;;;;5069163;28;20432;-71
2022/08/27 02:25:47;;;;;;;1.10;0.73;;;;;;;;;;5069694;28;20086;-71
2022/08/27 02:28:14;;;;;;;0.88;0.80;;;;;;;;;;5069678;28;20474;-70
2022/08/27 02:30:40;;;;;;;1.67;1.00;;;;;;;;;;5069844;28;20494;-70
2022/08/27 02:33:06;;;;;;;1.17;0.90;;;;;;;;;;5070128;28;20047;-71
2022/08/27 02:35:34;;;;;;;0.73;0.70;;;;;;;;;;5070333;28;20036;-69
2022/08/27 02:38:01;;;;;;;0.90;0.82;;;;;;;;;;5069876;28;20052;-70
2022/08/27 02:40:27;;;;;;;1.35;1.00;;;;;;;;;;5070237;28;20078;-70
2022/08/27 02:42:53;;;;;;;0.95;0.80;;;;;;;;;;5070335;28;20044;-70
2022/08/27 02:45:19;;;;;;;1.60;0.90;;;;;;;;;;5069708;28;20040;-69
2022/08/27 02:47:46;;;;;;;1.00;0.75;;;;;;;;;;5069279;28;20037;-70
2022/08/27 02:50:13;;;;;;;1.55;0.88;;;;;;;;;;5069981;28;20052;-65
2022/08/27 02:52:39;;;;;;;0.93;0.88;;;;;;;;;;5069971;28;20055;-70
2022/08/27 02:55:06;;;;;;;1.60;0.77;;;;;;;;;;5070843;28;20127;-70
2022/08/27 02:57:32;;;;;;;1.15;0.80;;;;;;;;;;5069967;28;20048;-69
2022/08/27 02:59:58;;;;;;;1.88;0.85;;;;;;;;;;5062007;28;20043;-70
2022/08/27 03:02:24;;;;;;;1.40;0.70;;;;;;;;;;5057720;28;20081;-71
2022/08/27 03:04:50;;;;;;;1.35;1.00;;;;;;;;;;5056159;28;20051;-70
2022/08/27 03:07:16;;;;;;;1.35;0.77;;;;;;;;;;5067351;28;20120;-70
2022/08/27 03:09:42;;;;;;;1.58;0.88;;;;;;;;;;5063760;28;20044;-70
2022/08/27 03:12:08;;;;;;;0.82;0.75;;;;;;;;;;5068651;28;20048;-71
2022/08/27 03:14:34;;;;;;;0.70;0.70;;;;;;;;;;5067419;28;20055;-70
2022/08/27 03:18:17;;;;;;;1.15;0.80;;;;;;;;;;5062440;28;20055;-70
2022/08/27 03:19:47;;;;;;;1.70;1.00;;;;;;;;;;5061779;28;20048;-70
2022/08/27 03:22:13;;;;;;;0.88;0.80;;;;;;;;;;5068743;28;20037;-66
2022/08/27 03:24:40;;;;;;;1.38;1.10;;;;;;;;;;5061324;28;20044;-70
2022/08/27 03:27:07;;;;;;;0.88;0.73;;;;;;;;;;5060469;28;20044;-70
2022/08/27 03:29:33;;;;;;;0.75;0.70;;;;;;;;;;5059057;28;20045;-71
2022/08/27 03:31:59;;;;;;;0.70;0.70;;;;;;;;;;5055211;28;20090;-71
2022/08/27 03:34:25;;;;;;;0.60;0.60;;;;;;;;;;5049706;28;20106;-69
2022/08/27 03:36:52;;;;;;;1.17;0.65;;;;;;;;;;5051492;28;20147;-70
2022/08/27 03:39:18;;;;;;;1.05;0.80;;;;;;;;;;5067517;28;20059;-70
2022/08/27 03:41:44;;;;;;;1.77;0.90;;;;;;;;;;5066547;28;20094;-70
2022/08/27 03:44:11;;;;;;;3.53;0.90;;;;;;;;;;5063008;28;20128;-70
2022/08/27 03:46:37;;;;;;;1.23;1.10;;;;;;;;;;5071718;28;20542;-70
2022/08/27 03:49:03;;;;;;;1.73;0.82;;;;;;;;;;5072696;28;20059;-70
2022/08/27 03:51:29;;;;;;;1.10;0.98;;;;;;;;;;5059345;28;20052;-69
2022/08/27 03:53:55;;;;;;;2.75;1.30;;;;;;;;;;5072749;28;20106;-70
2022/08/27 03:56:22;;;;;;;0.93;0.85;;;;;;;;;;5072842;28;20045;-70
2022/08/27 03:58:48;;;;;;;0.88;0.75;;;;;;;;;;5058422;28;20086;-69
2022/08/27 04:01:15;;;;;;;1.27;0.88;;;;;;;;;;5058608;28;20108;-70
2022/08/27 04:03:41;;;;;;;2.05;1.30;;;;;;;;;;5054866;28;20064;-70
2022/08/27 04:06:08;;;;;;;1.20;1.10;;;;;;;;;;5065565;28;20041;-68
2022/08/27 04:08:34;;;;;;;0.60;0.60;;;;;;;;;;5052196;28;20096;-70
2022/08/27 04:11:00;;;;;;;1.35;0.80;;;;;;;;;;5068720;28;20041;-70
2022/08/27 04:13:26;;;;;;;0.65;0.65;;;;;;;;;;5072737;28;20502;-70
2022/08/27 04:15:55;;;;;;;1.83;0.70;;;;;;;;;;5071772;28;20040;-69
2022/08/27 04:18:21;;;;;;;1.80;1.30;;;;;;;;;;5072098;28;20560;-70
2022/08/27 04:20:47;;;;;;;1.75;0.82;;;;;;;;;;5072053;28;20520;-70
2022/08/27 04:23:14;;;;;;;2.10;1.38;;;;;;;;;;5071989;28;20040;-70
2022/08/27 04:25:41;;;;;;;1.27;0.95;;;;;;;;;;5071375;28;20052;-69
2022/08/27 04:28:07;;;;;;;1.05;0.80;;;;;;;;;;5058808;28;20036;-70
2022/08/27 04:30:33;;;;;;;1.13;0.80;;;;;;;;;;5062307;28;20758;-71
2022/08/27 04:32:59;;;;;;;1.00;0.70;;;;;;;;;;5054970;28;20041;-71
2022/08/27 04:35:25;;;;;;;0.95;0.80;;;;;;;;;;5071307;28;20040;-70
2022/08/27 04:37:52;;;;;;;0.70;0.70;;;;;;;;;;5071974;28;20044;-70
2022/08/27 04:40:18;;;;;;;0.80;0.70;;;;;;;;;;5072574;28;20049;-66
2022/08/27 04:42:44;;;;;;;1.48;0.77;;;;;;;;;;5072314;28;20056;-71
2022/08/27 04:45:10;;;;;;;1.30;0.80;;;;;;;;;;5073036;28;20052;-70
2022/08/27 04:47:36;;;;;;;0.98;0.75;;;;;;;;;;5071181;28;20048;-70
2022/08/27 04:50:02;;;;;;;0.60;0.60;;;;;;;;;;5070305;28;20048;-70
2022/08/27 04:52:28;;;;;;;0.73;0.70;;;;;;;;;;5071034;28;20493;-70
2022/08/27 04:54:54;;;;;;;0.93;0.82;;;;;;;;;;5072786;28;20475;-70
2022/08/27 04:57:21;;;;;;;1.10;0.60;;;;;;;;;;5071821;28;20040;-65
2022/08/27 04:59:47;;;;;;;0.70;0.70;;;;;;;;;;5072570;28;20048;-71
2022/08/27 05:02:13;;;;;;;1.48;1.02;;;;;;;;;;5070480;28;20032;-69
2022/08/27 05:04:39;;;;;;;1.45;0.80;;;;;;;;;;5072088;28;20049;-70
2022/08/27 05:07:06;;;;;;;1.63;0.80;;;;;;;;;;5071039;28;20044;-70
2022/08/27 05:09:33;;;;;;;2.47;0.88;;;;;;;;;;5071724;28;20047;-69
2022/08/27 05:12:00;;;;;;;1.45;0.98;;;;;;;;;;5072126;28;20059;-71
2022/08/27 05:14:31;;;;;;;0.93;0.80;;;;;;;;;;5071982;28;20086;-70
2022/08/27 05:16:57;;;;;;;1.27;0.70;;;;;;;;;;5070410;28;20436;-70
2022/08/27 05:19:23;;;;;;;0.80;0.80;;;;;;;;;;5070239;28;20040;-70
2022/08/27 05:21:50;;;;;;;0.88;0.70;;;;;;;;;;5070098;28;20055;-70
2022/08/27 05:24:17;;;;;;;0.98;0.82;;;;;;;;;;5054570;28;20059;-69
2022/08/27 05:26:44;;;;;;;1.02;0.70;;;;;;;;;;5070528;28;20059;-70
2022/08/27 05:29:10;;;;;;;1.13;0.70;;;;;;;;;;5070999;28;20591;-69
2022/08/27 05:31:36;;;;;;;1.15;0.77;;;;;;;;;;5070613;28;20052;-70
2022/08/27 05:34:04;;;;;;;0.70;0.70;;;;;;;;;;5071525;28;20052;-70
2022/08/27 05:36:31;;;;;;;0.70;0.70;;;;;;;;;;5069401;28;20139;-69
2022/08/27 05:38:59;;;;;;;0.82;0.73;;;;;;;;;;5071341;28;20048;-70
2022/08/27 05:41:30;;;;;;;1.50;0.73;;;;;;;;;;5068971;28;20477;-69
2022/08/27 05:44:00;;;;;;;0.70;0.70;;;;;;;;;;5071948;28;20133;-69
2022/08/27 05:46:26;;;;;;;1.10;0.77;;;;;;;;;;5069712;28;20169;-69
2022/08/27 05:48:54;;;;;;;0.65;0.65;;;;;;;;;;5071599;28;20051;-68
2022/08/27 05:51:22;;;;;;;1.15;0.80;;;;;;;;;;5069847;28;20464;-68
2022/08/27 05:53:48;;;;;;;0.93;0.70;;;;;;;;;;5070894;28;20050;-69
2022/08/27 05:56:15;;;;;;;0.80;0.80;;;;;;;;;;5071328;28;20067;-69
2022/08/27 06:01:26;;;;;;;0.73;0.73;;;;;;;;;;5048749;28;20064;-67
2022/08/27 06:03:53;;;;;;;1.20;0.70;;;;;;;;;;5051526;28;20737;-68
2022/08/27 06:06:21;;;;;;;2.88;0.90;;;;;;;;;;5064306;28;20219;-69
2022/08/27 06:08:48;;;;;;;0.70;0.70;;;;;;;;;;5069431;28;20127;-68
2022/08/27 06:11:14;;;;;;;0.50;0.50;;;;;;;;;;5049353;28;20063;-68
2022/08/27 06:13:40;;;;;;;0.63;0.63;;;;;;;;;;5050809;28;20541;-68
2022/08/27 06:16:07;;;;;;;0.77;0.73;;;;;;;;;;5058686;28;20040;-68
2022/08/27 06:18:34;;;;;;;1.38;0.85;;;;;;;;;;5070581;28;20041;-69
2022/08/27 06:21:00;;;;;;;0.90;0.80;;;;;;;;;;5070455;28;20036;-69
2022/08/27 06:23:27;;;;;;;0.82;0.70;;;;;;;;;;5069803;28;20048;-65
2022/08/27 06:25:53;;;;;;;1.48;0.90;;;;;;;;;;5069339;28;20057;-68
2022/08/27 06:28:21;;;;;;;0.88;0.65;;;;;;;;;;5068543;28;20041;-68
2022/08/27 06:30:47;;;;;;;0.93;0.70;;;;;;;;;;5065098;28;20462;-68
2022/08/27 06:33:14;;;;;;;1.17;0.63;;;;;;;;;;5078144;28;20079;-69
2022/08/27 06:35:40;;;;;;;0.80;0.80;;;;;;;;;;5064613;28;20056;-68
2022/08/27 06:38:06;;;;;;;0.75;0.63;;;;;;;;;;5069729;28;21257;-68
2022/08/27 06:40:33;;;;;;;0.85;0.77;;;;;;;;;;5069832;28;20133;-68
2022/08/27 06:42:59;;;;;;;0.70;0.70;;;;;;;;;;5070539;28;20044;-67
2022/08/27 06:45:25;;;;;;;0.60;0.60;;;;;;;;;;5069878;28;20378;-68
2022/08/27 06:47:51;;;;;;;0.88;0.80;;;;;;;;;;5069860;28;20099;-68
2022/08/27 06:50:19;;;;;;;0.73;0.73;;;;;;;;;;5069428;28;20125;-68
2022/08/27 06:52:46;;;;;;;1.40;0.70;;;;;;;;;;5069143;28;20390;-69
2022/08/27 06:55:12;;;;;;;0.80;0.65;;;;;;;;;;5070396;28;20051;-67
2022/08/27 06:57:38;;;;;;;0.68;0.65;;;;;;;;;;5069156;28;20037;-68
2022/08/27 07:00:07;;;;;;;0.60;0.60;;;;;;;;;;5069591;28;20094;-69
2022/08/27 07:02:33;;;;;;;1.20;0.80;;;;;;;;;;5068722;28;20380;-70
2022/08/27 07:04:59;;;;;;;1.23;0.80;;;;;;;;;;5070351;28;20382;-68
2022/08/27 07:07:25;;;;;;;1.40;0.85;;;;;;;;;;5069796;28;20432;-68
2022/08/27 07:09:51;;;;;;;0.82;0.70;;;;;;;;;;5070236;28;20221;-68
2022/08/27 07:12:17;;;;;;;0.68;0.68;;;;;;;;;;5071029;28;20404;-68
2022/08/27 07:14:43;;;;;;;0.70;0.70;;;;;;;;;;5074257;28;20384;-67
2022/08/27 07:17:09;;;;;;;0.70;0.70;;;;;;;;;;5073274;28;20044;-68
2022/08/27 07:19:39;;;;;;;0.77;0.70;;;;;;;;;;5073100;28;20040;-67
2022/08/27 07:22:05;;;;;;;0.90;0.80;;;;;;;;;;5073614;28;20044;-68
2022/08/27 07:24:32;;;;;;;0.70;0.70;;;;;;;;;;5073779;28;20382;-66
2022/08/27 07:26:58;;;;;;;0.70;0.63;;;;;;;;;;5073635;28;20496;-68
2022/08/27 07:29:24;;;;;;;0.50;0.45;;;;;;;;;;5074469;28;20084;-67
2022/08/27 07:31:50;;;;;;;0.65;0.65;;;;;;;;;;5070389;28;20036;-67
2022/08/27 07:34:16;;;;;;;0.90;0.63;;;;;;;;;;5074238;28;20052;-67
2022/08/27 07:36:42;;;;;;;0.63;0.60;;;;;;;;;;5072790;28;20055;-67
2022/08/27 07:39:08;;;;;;;0.85;0.40;;;;;;;;;;5072514;28;20052;-67
2022/08/27 07:44:24;;;;;;;0.80;0.80;;;;;;;;;;5073425;28;20051;-65
2022/08/27 07:44:24;;;;;;;0.95;0.60;;;;;;;;;;5073992;28;20131;-67
2022/08/27 07:46:50;;;;;;;0.70;0.65;;;;;;;;;;5071672;28;20481;-67
2022/08/27 07:49:17;;;;;;;0.98;0.70;;;;;;;;;;5074071;28;20045;-67
2022/08/27 07:51:44;;;;;;;0.90;0.60;;;;;;;;;;5072551;28;20047;-66
2022/08/27 07:54:10;;;;;;;1.60;1.13;;;;;;;;;;5071056;28;20499;-67
2022/08/27 07:56:36;;;;;;;0.82;0.52;;;;;;;;;;5073037;28;20147;-66
2022/08/27 07:59:02;;;;;;;0.85;0.60;;;;;;;;;;5073397;28;20127;-67
2022/08/27 08:01:29;;;;;;;0.65;0.65;;;;;;;;;;5071909;28;20091;-69
2022/08/27 08:03:55;;;;;;;0.70;0.70;;;;;;;;;;5068862;28;20044;-68
2022/08/27 08:06:21;;;;;;;1.48;0.80;;;;;;;;;;5071536;28;20040;-69
2022/08/27 08:08:48;;;;;;;0.65;0.60;;;;;;;;;;5071805;28;20040;-70
2022/08/27 08:11:15;;;;;;;0.60;0.60;;;;;;;;;;5071296;28;20036;-71
2022/08/27 08:13:42;;;;;;;0.98;0.82;;;;;;;;;;5071979;28;20049;-70
2022/08/27 08:16:08;;;;;;;0.77;0.63;;;;;;;;;;5070489;28;20054;-70
2022/08/27 08:18:34;;;;;;;46.83;5.30;;;;;;;;;;5071482;28;20493;-70
2022/08/27 08:21:01;;;;;;;7.80;1.50;;;;;;;;;;5071484;28;20048;-75
2022/08/27 08:23:28;;;;;;;2.15;0.80;;;;;;;;;;5071058;28;20094;-75
2022/08/27 08:25:54;;;;;;;0.68;0.60;;;;;;;;;;5072019;28;20045;-73
2022/08/27 08:28:20;;;;;;;7.55;1.00;;;;;;;;;;5072763;28;20044;-67
2022/08/27 08:30:46;;;;;;;1.40;0.73;;;;;;;;;;5071662;28;20041;-68
2022/08/27 08:33:12;;;;;;;0.63;0.55;;;;;;;;;;5072831;28;20056;-68
2022/08/27 08:35:39;;;;;;;1.65;0.80;;;;;;;;;;5087492;28;20401;-67
2022/08/27 08:38:06;;;;;;;1.15;0.60;;;;;;;;;;5072275;28;20041;-68
2022/08/27 08:40:34;;;;;;;1.05;0.73;;;;;;;;;;5072323;28;20048;-68
2022/08/27 08:43:02;;;;;;;0.60;0.60;;;;;;;;;;5072580;28;20466;-67
2022/08/27 08:45:30;;;;;;;1.15;0.70;;;;;;;;;;5072031;28;20053;-68
2022/08/27 08:47:58;;;;;;;1.85;0.77;;;;;;;;;;5072094;28;20470;-68
2022/08/27 08:50:38;;;;;;;2.25;0.82;;;;;;;;;;5071984;28;20070;-74
2022/08/27 08:53:19;;;;;;;2.30;1.13;;;;;;;;;;5071486;28;20109;-72
2022/08/27 08:55:48;;;;;;;6.45;1.10;;;;;;;;;;5076473;28;20068;-77
2022/08/27 08:58:33;;;;;;;9.65;1.90;;;;;;;;;;5072354;28;20482;-75
2022/08/27 09:01:00;;;;;;;2.58;1.00;;;;;;;;;;5068031;28;20051;-74
2022/08/27 09:03:27;;;;;;;4.57;1.00;;;;;;;;;;5072387;28;20119;-75
2022/08/27 09:05:57;;;;;;;4.07;0.93;;;;;;;;;;5070929;28;20045;-74
2022/08/27 09:08:33;;;;;;;3.90;1.08;;;;;;;;;;5070639;28;20379;-75
2022/08/27 09:11:06;;;;;;;5.05;1.30;;;;;;;;;;5071455;28;20934;-72
2022/08/27 09:13:52;;;;;;;2.88;1.00;;;;;;;;;;5088198;28;20048;-73
2022/08/27 09:16:18;;;;;;;3.92;1.27;;;;;;;;;;5053397;28;20132;-74
2022/08/27 09:18:44;;;;;;;3.85;1.15;;;;;;;;;;5071011;28;20116;-73
2022/08/27 09:21:23;;;;;;;5.72;1.02;;;;;;;;;;5072074;28;20036;-73
2022/08/27 09:24:01;;;;;;;3.08;1.00;;;;;;;;;;5071144;28;20060;-68
2022/08/27 09:26:28;;;;;;;3.95;1.45;;;;;;;;;;5066128;28;20046;-72
2022/08/27 09:31:44;;;;;;;2.08;1.08;;;;;;;;;;5070314;28;20555;-71
2022/08/27 09:34:10;;;;;;;2.67;1.15;;;;;;;;;;5070660;28;20044;-76
2022/08/27 09:36:47;;;;;;;2.30;0.93;;;;;;;;;;5070926;28;20114;-76
2022/08/27 09:39:14;;;;;;;1.23;1.00;;;;;;;;;;5071321;28;20057;-77
2022/08/27 09:41:45;;;;;;;3.00;1.17;;;;;;;;;;5071455;28;20057;-76
2022/08/27 09:44:12;;;;;;;0.93;0.80;;;;;;;;;;5072025;28;20083;-75
2022/08/27 09:46:38;;;;;;;2.55;0.80;;;;;;;;;;5070446;28;20044;-76
2022/08/27 09:49:12;;;;;;;2.97;1.27;;;;;;;;;;5053470;28;20181;-77
2022/08/27 09:51:39;;;;;;;1.67;1.17;;;;;;;;;;5069421;28;20991;-74
2022/08/27 09:54:07;;;;;;;3.97;1.00;;;;;;;;;;5069936;28;20040;-72
2022/08/27 09:56:40;;;;;;;1.20;0.70;;;;;;;;;;5068475;28;20098;-71
2022/08/27 09:59:09;;;;;;;2.22;0.82;;;;;;;;;;5070565;28;20052;-71
2022/08/27 10:01:37;;;;;;;2.00;0.80;;;;;;;;;;5068483;28;20068;-70
2022/08/27 10:04:11;;;;;;;1.05;0.60;;;;;;;;;;5063104;28;20453;-70
2022/08/27 10:06:37;;;;;;;1.50;0.70;;;;;;;;;;5070176;28;20048;-70
2022/08/27 10:09:15;;;;;;;1.73;0.93;;;;;;;;;;5070944;28;20060;-67
2022/08/27 10:12:00;;;;;;;2.10;0.70;;;;;;;;;;5069459;28;20517;-67
2022/08/27 10:14:39;;;;;;;0.93;0.85;;;;;;;;;;5068433;28;20067;-72
2022/08/27 10:17:16;;;;;;;2.90;0.98;;;;;;;;;;5067345;28;20139;-75
2022/08/27 10:19:51;;;;;;;3.42;0.95;;;;;;;;;;5051195;28;20123;-70
2022/08/27 10:22:17;;;;;;;6.30;1.10;;;;;;;;;;5065431;28;20064;-67
2022/08/27 10:24:54;;;;;;;1.80;1.00;;;;;;;;;;5070601;28;20036;-66
2022/08/27 10:27:46;;;;;;;1.20;0.90;;;;;;;;;;5068810;28;20043;-66
2022/08/27 10:30:14;;;;;;;1.63;1.05;;;;;;;;;;5059314;28;20036;-66
2022/08/27 10:32:47;;;;;;;6.22;1.20;;;;;;;;;;5068658;28;20710;-66
2022/08/27 10:35:15;;;;;;;4.38;1.13;;;;;;;;;;5070423;28;20107;-66
2022/08/27 10:37:44;;;;;;;1.70;0.98;;;;;;;;;;5069391;28;20063;-66
2022/08/27 10:40:29;;;;;;;2.15;0.73;;;;;;;;;;5069042;28;20040;-66
2022/08/27 10:43:07;;;;;;;5.07;1.00;;;;;;;;;;5050338;28;20051;-66
2022/08/27 10:45:34;;;;;;;2.47;1.02;;;;;;;;;;5048913;28;20124;-66
2022/08/27 10:48:10;;;;;;;4.10;1.23;;;;;;;;;;5049637;28;20179;-66
2022/08/27 10:50:48;;;;;;;5.28;1.55;;;;;;;;;;5055564;28;20110;-66
2022/08/27 10:53:29;;;;;;;3.33;1.00;;;;;;;;;;5068829;28;20040;-66
2022/08/27 10:56:25;;;;;;;3.60;1.00;;;;;;;;;;5069987;28;20080;-67
2022/08/27 10:59:00;;;;;;;2.25;0.80;;;;;;;;;;5057364;28;20052;-67
2022/08/27 11:01:35;;;;;;;2.30;1.00;;;;;;;;;;5069035;28;20124;-67
2022/08/27 11:04:17;;;;;;;3.92;0.90;;;;;;;;;;5067897;28;20504;-67
2022/08/27 11:06:52;;;;;;;1.73;0.90;;;;;;;;;;5060708;28;20048;-67
2022/08/27 11:09:21;;;;;;;2.10;1.00;;;;;;;;;;5070609;28;20091;-67
2022/08/27 11:11:49;;;;;;;2.20;1.00;;;;;;;;;;5069901;28;20428;-67
2022/08/27 11:14:36;;;;;;;1.50;0.93;;;;;;;;;;5068710;28;20230;-67
2022/08/27 11:17:22;;;;;;;3.22;1.00;;;;;;;;;;5068342;28;20067;-66
2022/08/27 11:20:04;;;;;;;1.45;0.70;;;;;;;;;;5062334;28;20128;-67
2022/08/27 11:22:33;;;;;;;1.63;0.80;;;;;;;;;;5068946;28;20048;-67
2022/08/27 11:25:13;;;;;;;1.50;0.70;;;;;;;;;;5069994;28;20044;-67
2022/08/27 11:27:40;;;;;;;3.05;0.70;;;;;;;;;;5068894;28;20044;-67
2022/08/27 11:30:09;;;;;;;3.75;1.10;;;;;;;;;;5067086;28;20091;-67
2022/08/27 11:32:35;;;;;;;5.25;1.23;;;;;;;;;;5067690;28;20053;-66
2022/08/27 11:35:06;;;;;;;3.05;1.30;;;;;;;;;;5069773;28;20494;-68
2022/08/27 11:37:38;;;;;;;1.00;0.65;;;;;;;;;;5069491;28;20043;-67
2022/08/27 11:40:23;;;;;;;2.53;0.68;;;;;;;;;;5068721;28;20490;-66
2022/08/27 11:42:51;;;;;;;2.22;0.70;;;;;;;;;;5061718;28;20063;-66
2022/08/27 11:45:19;;;;;;;3.40;0.90;;;;;;;;;;5068088;28;20044;-66
2022/08/27 11:47:53;;;;;;;1.67;0.85;;;;;;;;;;5067371;28;20048;-67
2022/08/27 11:50:21;;;;;;;1.45;0.80;;;;;;;;;;5055998;28;20453;-67
2022/08/27 11:53:01;;;;;;;4.53;1.05;;;;;;;;;;5049237;28;20040;-67
2022/08/27 11:55:30;;;;;;;3.15;0.90;;;;;;;;;;5067618;28;20055;-67
2022/08/27 11:58:08;;;;;;;1.23;0.60;;;;;;;;;;5069575;28;20110;-67
2022/08/27 12:00:39;;;;;;;2.38;0.90;;;;;;;;;;5050598;28;20055;-68
2022/08/27 12:03:10;;;;;;;3.33;0.80;;;;;;;;;;5062733;28;20084;-69
2022/08/27 12:05:44;;;;;;;1.55;0.93;;;;;;;;;;5073450;28;20044;-68
2022/08/27 12:08:14;;;;;;;4.00;0.82;;;;;;;;;;5072014;28;20135;-67
2022/08/27 12:10:59;;;;;;;2.97;1.17;;;;;;;;;;5070992;28;20112;-66
2022/08/27 12:13:31;;;;;;;1.50;0.60;;;;;;;;;;5071068;28;20041;-67
2022/08/27 12:16:02;;;;;;;2.38;0.82;;;;;;;;;;5072020;28;20090;-67
2022/08/27 12:18:35;;;;;;;2.35;0.73;;;;;;;;;;5072642;28;20072;-67
2022/08/27 12:21:05;;;;;;;0.35;0.35;;;;;;;;;;5072656;28;20052;-67
2022/08/27 12:23:41;;;;;;;1.27;0.60;;;;;;;;;;5071129;28;20050;-67
2022/08/27 12:26:16;;;;;;;2.33;0.80;;;;;;;;;;5071651;28;20053;-67
2022/08/27 12:28:42;;;;;;;2.83;1.02;;;;;;;;;;5073293;28;20052;-67
2022/08/27 12:31:09;;;;;;;2.20;0.80;;;;;;;;;;5071650;28;20413;-67
2022/08/27 12:33:39;;;;;;;1.52;0.80;;;;;;;;;;5071455;28;20106;-67
2022/08/27 12:36:09;;;;;;;2.63;0.90;;;;;;;;;;5072651;28;20052;-67
2022/08/27 12:38:35;;;;;;;2.35;0.80;;;;;;;;;;5071969;28;20485;-67
2022/08/27 12:41:07;;;;;;;2.50;0.75;;;;;;;;;;5072767;28;20057;-67
2022/08/27 12:43:34;;;;;;;0.88;0.60;;;;;;;;;;5072749;28;20087;-67
2022/08/27 12:46:27;;;;;;;4.03;1.35;;;;;;;;;;5071852;28;20048;-67
2022/08/27 12:49:03;;;;;;;1.50;0.70;;;;;;;;;;5070526;28;20049;-67
2022/08/27 12:51:31;;;;;;;1.70;0.82;;;;;;;;;;5072291;28;20040;-67
2022/08/27 12:53:57;;;;;;;3.40;0.93;;;;;;;;;;5070554;28;20049;-70
2022/08/27 12:56:38;;;;;;;0.50;0.50;;;;;;;;;;5071960;28;20047;-66
2022/08/27 12:59:19;;;;;;;1.98;0.63;;;;;;;;;;5072299;28;20558;-67
2022/08/27 13:02:04;;;;;;;1.88;0.57;;;;;;;;;;5084966;28;20099;-66
2022/08/27 13:04:33;;;;;;;1.05;0.55;;;;;;;;;;5065928;28;20040;-67
2022/08/27 13:06:59;;;;;;;1.08;0.50;;;;;;;;;;5071216;28;20518;-66
2022/08/27 13:09:33;;;;;;;0.93;0.52;;;;;;;;;;5065119;28;20056;-67
2022/08/27 13:12:00;;;;;;;1.95;0.65;;;;;;;;;;5070457;28;20063;-67
2022/08/27 13:14:34;;;;;;;1.30;0.40;;;;;;;;;;5064177;28;20044;-67
2022/08/27 13:17:20;;;;;;;0.47;0.43;;;;;;;;;;5056092;28;20045;-67
2022/08/27 13:19:51;;;;;;;2.30;0.65;;;;;;;;;;5060066;28;20087;-67
2022/08/27 13:22:21;;;;;;;1.27;0.32;;;;;;;;;;5070022;28;20048;-67
2022/08/27 13:24:49;;;;;;;1.30;0.75;;;;;;;;;;5072015;28;20044;-67
2022/08/27 13:27:15;;;;;;;2.70;0.85;;;;;;;;;;5070705;28;20048;-67
2022/08/27 13:29:42;;;;;;;1.48;0.35;;;;;;;;;;5071880;28;20182;-67
2022/08/27 13:32:08;;;;;;;2.15;0.68;;;;;;;;;;5061011;28;20060;-67
2022/08/27 13:34:37;;;;;;;1.92;0.60;;;;;;;;;;5061161;28;20059;-67
2022/08/27 13:37:20;;;;;;;1.60;0.50;;;;;;;;;;5050614;28;20041;-67
2022/08/27 13:39:46;;;;;;;0.82;0.50;;;;;;;;;;5056914;28;20052;-67
2022/08/27 13:42:13;;;;;;;0.63;0.40;;;;;;;;;;5069923;28;20474;-67
2022/08/27 13:44:40;;;;;;;3.50;0.55;;;;;;;;;;5071192;28;20143;-67
2022/08/27 13:47:08;;;;;;;1.58;0.50;;;;;;;;;;5068931;28;20044;-67
2022/08/27 13:49:36;;;;;;;1.60;0.50;;;;;;;;;;5058388;28;20080;-67
2022/08/27 13:52:05;;;;;;;1.58;0.40;;;;;;;;;;5070471;28;20037;-67
2022/08/27 13:54:32;;;;;;;1.45;0.47;;;;;;;;;;5051020;28;20051;-67
2022/08/27 13:57:03;;;;;;;1.85;0.68;;;;;;;;;;5051252;28;20470;-67
2022/08/27 13:59:29;;;;;;;0.98;0.40;;;;;;;;;;5060623;28;20095;-67
2022/08/27 14:01:57;;;;;;;1.45;0.80;;;;;;;;;;5058490;28;20036;-67
2022/08/27 14:04:25;;;;;;;1.55;0.40;;;;;;;;;;5066615;28;20077;-67
2022/08/27 14:06:52;;;;;;;1.25;0.60;;;;;;;;;;5067237;28;20052;-67
2022/08/27 14:09:22;;;;;;;1.08;0.50;;;;;;;;;;5055992;28;20640;-67
2022/08/27 14:11:49;;;;;;;1.17;0.40;;;;;;;;;;5069037;28;20052;-65
2022/08/27 14:14:16;;;;;;;1.85;0.82;;;;;;;;;;5062982;28;20067;-66
2022/08/27 14:16:43;;;;;;;1.58;0.70;;;;;;;;;;5055960;28;20086;-67
2022/08/27 14:19:29;;;;;;;2.20;0.80;;;;;;;;;;5063240;28;20041;-68
2022/08/27 14:21:56;;;;;;;1.58;0.80;;;;;;;;;;5063434;28;20075;-68
2022/08/27 14:24:22;;;;;;;2.78;0.50;;;;;;;;;;5063924;28;20102;-69
2022/08/27 14:26:53;;;;;;;0.28;0.20;;;;;;;;;;5067629;28;20097;-69
2022/08/27 14:29:19;;;;;;;0.60;0.38;;;;;;;;;;5064099;28;20127;-69
2022/08/27 14:31:46;;;;;;;1.05;0.40;;;;;;;;;;5062365;28;20116;-69
2022/08/27 14:34:12;;;;;;;0.85;0.43;;;;;;;;;;5064081;28;20137;-69
2022/08/27 14:36:39;;;;;;;1.85;0.32;;;;;;;;;;5052879;28;20117;-69
2022/08/27 14:39:06;;;;;;;0.47;0.38;;;;;;;;;;5065810;28;20040;-69
2022/08/27 14:41:32;;;;;;;1.10;0.63;;;;;;;;;;5049553;28;20045;-69
2022/08/27 14:44:00;;;;;;;1.08;0.50;;;;;;;;;;5073742;28;20041;-69
2022/08/27 14:46:28;;;;;;;0.30;0.30;;;;;;;;;;5060025;28;20424;-69
2022/08/27 14:48:55;;;;;;;0.50;0.50;;;;;;;;;;5070153;28;20052;-69
2022/08/27 14:51:26;;;;;;;1.20;0.50;;;;;;;;;;5069225;28;20119;-69
2022/08/27 14:53:53;;;;;;;1.17;0.60;;;;;;;;;;5068915;28;20186;-70
2022/08/27 14:56:20;;;;;;;2.67;0.57;;;;;;;;;;5066607;28;20057;-70
2022/08/27 14:58:47;;;;;;;2.53;0.50;;;;;;;;;;5064191;28;20044;-70
2022/08/27 15:01:13;;;;;;;2.17;0.55;;;;;;;;;;5061904;28;20121;-69